TimeCST,TemperatureF,Dew PointF,Humidity,Sea Level PressureIn,VisibilityMPH,Wind Direction,Wind SpeedMPH,Gust SpeedMPH,PrecipitationIn,Events,Conditions,WindDirDegrees,DateUTC
12:15 AM,28.4,15.8,59,30.23,10.0,SSE,4.6,-,N/A,,Clear,160,2012-12-12 06:15:00
12:35 AM,28.4,15.8,59,30.23,10.0,South,4.6,-,N/A,,Clear,170,2012-12-12 06:35:00
12:55 AM,28.4,15.8,59,30.24,10.0,South,3.5,-,N/A,,Clear,190,2012-12-12 06:55:00
1:15 AM,23.0,15.8,74,30.24,9.0,Calm,Calm,-,N/A,,Clear,0,2012-12-12 07:15:00
1:35 AM,21.2,17.6,86,30.24,10.0,Calm,Calm,-,N/A,,Clear,0,2012-12-12 07:35:00
1:55 AM,21.2,17.6,86,30.24,10.0,Calm,Calm,-,N/A,,Clear,0,2012-12-12 07:55:00
2:15 AM,21.2,17.6,86,30.24,10.0,Calm,Calm,-,N/A,,Clear,0,2012-12-12 08:15:00
2:35 AM,23.0,17.6,80,30.24,10.0,Calm,Calm,-,N/A,,Clear,0,2012-12-12 08:35:00
2:55 AM,24.8,17.6,74,30.25,10.0,Calm,Calm,-,N/A,,Clear,0,2012-12-12 08:55:00
3:15 AM,24.8,15.8,69,30.24,10.0,Calm,Calm,-,N/A,,Clear,0,2012-12-12 09:15:00
3:35 AM,21.2,17.6,86,30.24,10.0,Calm,Calm,-,N/A,,Clear,0,2012-12-12 09:35:00
3:55 AM,19.4,15.8,86,30.24,10.0,Calm,Calm,-,N/A,,Clear,0,2012-12-12 09:55:00
4:15 AM,19.4,15.8,86,30.25,10.0,Calm,Calm,-,N/A,,Clear,0,2012-12-12 10:15:00
4:35 AM,19.4,15.8,86,30.25,10.0,Calm,Calm,-,N/A,,Clear,0,2012-12-12 10:35:00
4:55 AM,19.4,15.8,86,30.26,10.0,Calm,Calm,-,N/A,,Clear,0,2012-12-12 10:55:00
5:15 AM,21.2,17.6,86,30.26,10.0,Calm,Calm,-,N/A,,Clear,0,2012-12-12 11:15:00
5:35 AM,19.4,14.0,80,30.27,10.0,Calm,Calm,-,N/A,,Clear,0,2012-12-12 11:35:00
5:55 AM,17.6,15.8,93,30.27,10.0,Calm,Calm,-,N/A,,Clear,0,2012-12-12 11:55:00
6:15 AM,17.6,15.8,93,30.28,10.0,Calm,Calm,-,N/A,,Clear,0,2012-12-12 12:15:00
6:35 AM,17.6,14.0,86,30.29,10.0,Calm,Calm,-,N/A,,Clear,0,2012-12-12 12:35:00
7:15 AM,19.4,14.0,80,30.30,10.0,Calm,Calm,-,N/A,,Clear,0,2012-12-12 13:15:00
7:35 AM,17.6,15.8,93,30.30,10.0,Calm,Calm,-,N/A,,Clear,0,2012-12-12 13:35:00
7:55 AM,19.4,15.8,86,30.31,10.0,Calm,Calm,-,N/A,,Clear,0,2012-12-12 13:55:00
8:15 AM,21.2,17.6,86,30.32,10.0,Calm,Calm,-,N/A,,Clear,0,2012-12-12 14:15:00
8:35 AM,23.0,19.4,86,30.33,10.0,Calm,Calm,-,N/A,,Clear,0,2012-12-12 14:35:00
8:55 AM,26.6,19.4,74,30.34,10.0,Calm,Calm,-,N/A,,Clear,0,2012-12-12 14:55:00
9:15 AM,28.4,21.2,74,30.34,10.0,Calm,Calm,-,N/A,,Clear,0,2012-12-12 15:15:00
9:35 AM,30.2,24.8,80,30.35,10.0,Calm,Calm,-,N/A,,Clear,0,2012-12-12 15:35:00
9:55 AM,33.8,24.8,70,30.35,10.0,South,3.5,-,N/A,,Clear,170,2012-12-12 15:55:00
10:15 AM,37.4,26.6,65,30.35,10.0,South,3.5,-,N/A,,Clear,170,2012-12-12 16:15:00
10:35 AM,39.2,26.6,61,30.34,10.0,SSE,3.5,-,N/A,,Clear,160,2012-12-12 16:35:00
10:55 AM,42.8,24.8,49,30.34,10.0,South,3.5,-,N/A,,Clear,180,2012-12-12 16:55:00
11:15 AM,44.6,23.0,43,30.34,10.0,SSE,4.6,-,N/A,,Clear,160,2012-12-12 17:15:00
11:35 AM,46.4,23.0,40,30.33,10.0,South,5.8,-,N/A,,Clear,180,2012-12-12 17:35:00
11:55 AM,46.4,21.2,37,30.32,10.0,South,8.1,-,N/A,,Clear,170,2012-12-12 17:55:00
12:15 PM,48.2,19.4,32,30.31,10.0,South,6.9,-,N/A,,Clear,190,2012-12-12 18:15:00
12:35 PM,48.2,19.4,32,30.31,10.0,SSW,9.2,-,N/A,,Clear,200,2012-12-12 18:35:00
12:55 PM,48.2,19.4,32,30.30,10.0,South,12.7,-,N/A,,Clear,190,2012-12-12 18:55:00
1:15 PM,48.2,19.4,32,30.30,10.0,South,10.4,-,N/A,,Clear,180,2012-12-12 19:15:00
1:35 PM,48.2,21.2,34,30.29,10.0,South,6.9,-,N/A,,Clear,180,2012-12-12 19:35:00
1:55 PM,48.2,19.4,32,30.29,10.0,South,9.2,-,N/A,,Clear,170,2012-12-12 19:55:00
2:15 PM,48.2,19.4,32,30.28,10.0,SSE,6.9,-,N/A,,Clear,160,2012-12-12 20:15:00
2:35 PM,48.2,19.4,32,30.28,10.0,SSE,8.1,-,N/A,,Clear,160,2012-12-12 20:35:00
2:55 PM,48.2,19.4,32,30.28,10.0,South,9.2,-,N/A,,Clear,170,2012-12-12 20:55:00
3:15 PM,48.2,19.4,32,30.28,10.0,SSE,9.2,-,N/A,,Clear,160,2012-12-12 21:15:00
3:35 PM,48.2,17.6,30,30.28,10.0,South,11.5,-,N/A,,Clear,170,2012-12-12 21:35:00
3:55 PM,46.4,17.6,32,30.28,10.0,South,8.1,-,N/A,,Clear,170,2012-12-12 21:55:00
4:15 PM,46.4,15.8,29,30.29,10.0,South,9.2,-,N/A,,Clear,170,2012-12-12 22:15:00
4:35 PM,44.6,17.6,34,30.29,10.0,South,6.9,-,N/A,,Clear,180,2012-12-12 22:35:00
4:55 PM,42.8,15.8,34,30.29,10.0,South,4.6,-,N/A,,Clear,170,2012-12-12 22:55:00
5:15 PM,42.8,15.8,34,30.30,10.0,South,5.8,-,N/A,,Clear,180,2012-12-12 23:15:00
5:35 PM,41.0,15.8,36,30.30,10.0,South,5.8,-,N/A,,Clear,170,2012-12-12 23:35:00
5:55 PM,39.2,15.8,39,30.30,10.0,SSE,5.8,-,N/A,,Clear,160,2012-12-12 23:55:00
6:15 PM,39.2,15.8,39,30.31,10.0,SSE,4.6,-,N/A,,Clear,150,2012-12-13 00:15:00
6:55 PM,35.6,17.6,48,30.31,10.0,SSE,6.9,-,N/A,,Clear,150,2012-12-13 00:55:00
7:15 PM,35.6,19.4,52,30.31,10.0,SSE,6.9,-,N/A,,Clear,150,2012-12-13 01:15:00
7:35 PM,35.6,19.4,52,30.31,10.0,South,4.6,-,N/A,,Clear,170,2012-12-13 01:35:00
7:55 PM,33.8,21.2,60,30.32,10.0,South,4.6,-,N/A,,Clear,180,2012-12-13 01:55:00
8:15 PM,33.8,21.2,60,30.32,10.0,South,4.6,-,N/A,,Clear,180,2012-12-13 02:15:00
8:35 PM,33.8,21.2,60,30.32,10.0,South,6.9,-,N/A,,Clear,180,2012-12-13 02:35:00
8:55 PM,32.0,21.2,64,30.32,10.0,South,6.9,-,N/A,,Clear,180,2012-12-13 02:55:00
9:35 PM,32.0,23.0,69,30.32,10.0,South,6.9,-,N/A,,Clear,170,2012-12-13 03:35:00
9:55 PM,32.0,24.8,75,30.32,10.0,South,6.9,-,N/A,,Clear,170,2012-12-13 03:55:00
10:15 PM,30.2,23.0,75,30.32,10.0,South,5.8,-,N/A,,Clear,170,2012-12-13 04:15:00
10:35 PM,30.2,24.8,80,30.31,10.0,SSE,6.9,-,N/A,,Clear,160,2012-12-13 04:35:00
10:55 PM,30.2,24.8,80,30.31,10.0,South,5.8,-,N/A,,Clear,170,2012-12-13 04:55:00
11:15 PM,32.0,24.8,75,30.31,10.0,South,4.6,-,N/A,,Clear,180,2012-12-13 05:15:00
11:35 PM,30.2,23.0,75,30.32,10.0,South,5.8,-,N/A,,Clear,190,2012-12-13 05:35:00
11:55 PM,30.2,21.2,69,30.31,10.0,South,6.9,-,N/A,,Clear,170,2012-12-13 05:55:00